Aérodrome :
LOGIN :

S'inscrire | Disclaimer

   EN    FR    IT 

 










Légende :    VFR   VFR Marginal   IFR   IFR Intensif   IFR Très Intensif
Visi : 
Plafond : 
>= 8 km
>= 3000ft
5 à 8 km
1000 à 3000 ft
1500m à 5 km
500 à 1000 ft
800 à 1500m
200 à 500 ft
< 800m
< 200 ft
Symboles :   Orages  Brouillard  Fortes neiges  Fortes précipitations  Vent > 20 kt
SIGMETs :   Divers  Orages  Givrage  Turbulence  Onde Orograph.  Cendres Volcan.






- Altitude de l'aérodrome : 194 ft


EBCV - Chièvres

DERNIER METAR :
  • 151022Z AUTO 26006KT 9999 SCT022/// BKN130/// BKN140/// 24/19 Q1015 WHT

METARs EXPIRÉS :
  • 150955Z AUTO 21003KT 9999 FEW025/// BKN120/// 24/18 Q1015 BLU
  • 150925Z AUTO 22007KT 9999 FEW017/// BKN130/// BKN140/// 23/18 Q1015 BLU
  • 150912Z AUTO 20006KT 9999 SCT017/// BKN140/// 23/18 Q1015 WHT
  • 150855Z AUTO 19006KT 9999 FEW016/// BKN130/// 23/19 Q1015 BLU
  • 150825Z AUTO 19005KT 9999 BKN130/// 21/19 Q1015 BLU
  • 150755Z AUTO 17003KT 8000 BKN130/// 21/19 Q1015 BLU
  • 150725Z AUTO 17003KT 6000 BKN130/// 20/19 Q1015 WHT

TAF TAF EBCV
Valide du 15 à 10h jusqu'au 15 à 19h UTC


150841Z 1510/1519 VRB03KT 9999 FEW015 BKN120
PROB40
TEMPO 1511/1519 VRB15G30KT 3500 TSRA FEW010 SCT030CB BKN040
PROB30
TEMPO 1511/1519 VRB20G35KT 2000 TSRAGR SCT010 BKN020CB



MET'MAP, la Météo Aéronautique d'un coup d'oeil ! - Copyright ORBIFLY Décembre 2007 - Disclaimer

ORBIFLY MET'MAP TEAM :

Programmation & Développement : Alexandra Zaïnal
Sur une idée originale de : Baudouin d'Aumeries
Assistance à la programmation : Marc-Olivier Méhu
Soutien technique & logistique : Manuel Goepfert

Contact : metmap@orbifly.com




SOURCES & CREDITS :

   NOAA